Time;durP1;ratioP1;P1;durP2;ratioP2;P2;SDS_P1;SDS_P2;PMS_P1;PMS_P2;Temp;Humidity;BMP_temperature;BMP_pressure;BME280_temperature;BME280_humidity;BME280_pressure;Samples;Min_cycle;Max_cycle;Signal;HPM_P1;HPM_P2
2023/04/15 00:00:32;;;;;;;5.63;2.50;;;7.60;99.90;;;;;;5018573;28;20037;-69
2023/04/15 00:02:58;;;;;;;6.13;1.95;;;7.50;99.90;;;;;;5026152;28;20045;-69
2023/04/15 00:05:24;;;;;;;7.67;2.60;;;7.60;99.90;;;;;;5041936;28;20056;-69
2023/04/15 00:07:50;;;;;;;6.50;2.60;;;7.50;99.90;;;;;;5010774;28;20045;-69
2023/04/15 00:10:15;;;;;;;7.50;2.72;;;7.40;99.90;;;;;;5002105;28;20071;-69
2023/04/15 00:12:41;;;;;;;8.53;2.30;;;7.40;99.90;;;;;;5029271;28;20057;-69
2023/04/15 00:15:08;;;;;;;3.43;2.13;;;7.30;99.90;;;;;;5015719;28;20055;-68
2023/04/15 00:17:34;;;;;;;5.45;2.70;;;7.30;99.90;;;;;;5000863;28;20483;-69
2023/04/15 00:19:59;;;;;;;5.13;2.65;;;7.30;99.90;;;;;;5021367;28;20116;-68
2023/04/15 00:22:28;;;;;;;6.57;2.80;;;7.20;99.90;;;;;;4999317;28;20171;-68
2023/04/15 00:24:54;;;;;;;6.32;3.20;;;7.10;99.90;;;;;;5024917;28;20056;-68
2023/04/15 00:27:19;;;;;;;3.47;2.13;;;7.10;99.90;;;;;;5018339;28;20045;-69
2023/04/15 00:29:45;;;;;;;7.07;2.40;;;7.10;99.90;;;;;;5010912;28;20049;-69
2023/04/15 00:32:11;;;;;;;8.32;2.90;;;7.00;99.90;;;;;;5012837;28;20484;-68
2023/04/15 00:34:37;;;;;;;6.37;3.00;;;7.00;99.90;;;;;;5018900;28;20135;-69
2023/04/15 00:37:02;;;;;;;10.83;3.40;;;7.00;99.90;;;;;;5021009;28;20348;-68
2023/04/15 00:39:28;;;;;;;6.87;2.80;;;6.90;99.90;;;;;;5021982;28;20049;-69
2023/04/15 00:41:54;;;;;;;9.00;3.23;;;6.90;99.90;;;;;;5022231;28;20468;-69
2023/04/15 00:44:20;;;;;;;9.50;3.22;;;6.80;99.90;;;;;;5016833;28;20290;-69
2023/04/15 00:46:47;;;;;;;7.88;3.30;;;6.80;99.90;;;;;;5021061;28;20408;-69
2023/04/15 00:49:13;;;;;;;9.57;2.88;;;6.80;99.90;;;;;;4997428;28;20044;-69
2023/04/15 00:51:38;;;;;;;6.20;3.00;;;6.70;99.90;;;;;;5029324;28;20041;-69
2023/04/15 00:54:06;;;;;;;5.97;2.83;;;6.70;99.90;;;;;;5019374;28;20461;-69
2023/04/15 00:56:37;;;;;;;9.70;2.90;;;6.70;99.90;;;;;;5003585;28;20073;-68
2023/04/15 00:59:03;;;;;;;7.05;3.00;;;6.70;99.90;;;;;;5033687;28;20069;-69
2023/04/15 01:01:29;;;;;;;5.40;2.97;;;6.60;99.90;;;;;;5033532;28;20032;-68
2023/04/15 01:03:59;;;;;;;8.60;3.10;;;6.60;99.90;;;;;;5015904;28;20380;-69
2023/04/15 01:06:26;;;;;;;7.05;3.20;;;6.60;99.90;;;;;;5030300;28;20083;-68
2023/04/15 01:08:54;;;;;;;11.18;3.47;;;6.50;99.90;;;;;;5040989;28;20055;-69
2023/04/15 01:11:22;;;;;;;6.43;3.03;;;6.60;99.90;;;;;;5026366;28;20041;-69
2023/04/15 01:13:49;;;;;;;9.60;3.20;;;6.50;99.90;;;;;;5034770;28;20120;-69
2023/04/15 01:16:15;;;;;;;9.93;3.55;;;6.40;99.90;;;;;;5017759;28;20403;-68
2023/04/15 01:18:41;;;;;;;8.68;3.55;;;6.40;99.90;;;;;;5032339;28;20128;-69
2023/04/15 01:21:07;;;;;;;10.83;4.10;;;6.40;99.90;;;;;;5016515;28;20292;-69
2023/04/15 01:23:36;;;;;;;10.35;3.38;;;6.40;99.90;;;;;;5018434;28;20041;-69
2023/04/15 01:26:05;;;;;;;9.18;3.42;;;6.30;99.90;;;;;;5024697;28;20063;-69
2023/04/15 01:28:31;;;;;;;7.05;3.25;;;6.30;99.90;;;;;;5016831;28;20486;-69
2023/04/15 01:31:12;;;;;;;10.02;3.63;;;6.30;99.90;;;;;;5024395;28;20083;-69
2023/04/15 01:33:39;;;;;;;8.00;3.25;;;6.20;99.90;;;;;;5012939;28;20087;-68
2023/04/15 01:36:09;;;;;;;7.88;4.07;;;6.20;99.90;;;;;;5012644;28;20057;-69
2023/04/15 01:38:36;;;;;;;9.32;3.40;;;6.20;99.90;;;;;;5016970;28;20227;-69
2023/04/15 01:41:03;;;;;;;;;;;6.20;99.90;;;;;;5002716;28;20073;-69
2023/04/15 01:43:29;;;;;;;7.22;3.30;;;6.20;99.90;;;;;;5042415;28;20263;-69
2023/04/15 01:45:55;;;;;;;11.25;3.80;;;6.20;99.90;;;;;;5007829;28;20223;-69
2023/04/15 01:48:21;;;;;;;12.93;3.50;;;6.20;99.90;;;;;;5017296;28;20033;-69
2023/04/15 01:50:47;;;;;;;;;;;6.10;99.90;;;;;;5019578;28;20094;-69
2023/04/15 01:53:14;;;;;;;6.53;3.13;;;6.10;99.90;;;;;;5018103;28;19921;-69
2023/04/15 01:55:42;;;;;;;8.40;4.50;;;6.10;99.90;;;;;;5030955;28;20447;-69
2023/04/15 01:58:07;;;;;;;8.00;3.72;;;6.00;99.90;;;;;;5036471;28;20269;-69
2023/04/15 02:00:33;;;;;;;9.97;4.07;;;6.00;99.90;;;;;;5019687;28;20029;-69
2023/04/15 02:02:59;;;;;;;10.50;3.63;;;6.00;99.90;;;;;;5003343;28;20033;-69
2023/04/15 02:05:27;;;;;;;8.60;3.97;;;5.90;99.90;;;;;;4997694;28;20033;-69
2023/04/15 02:07:53;;;;;;;6.97;3.63;;;5.90;99.90;;;;;;5039935;28;20056;-71
2023/04/15 02:12:46;;;;;;;10.00;4.68;;;5.90;99.90;;;;;;5057745;28;20456;-68
2023/04/15 02:15:12;;;;;;;7.93;4.47;;;5.90;99.90;;;;;;5060537;28;20040;-67
2023/04/15 02:17:37;;;;;;;11.30;4.47;;;5.90;99.90;;;;;;5057530;28;20123;-66
2023/04/15 02:20:09;;;;;;;12.13;4.63;;;5.90;99.90;;;;;;5040743;28;20044;-66
2023/04/15 02:22:35;;;;;;;14.02;4.45;;;5.90;99.90;;;;;;5024932;28;20082;-66
2023/04/15 02:25:00;;;;;;;11.47;4.87;;;5.80;99.90;;;;;;5035843;28;20048;-66
2023/04/15 02:27:27;;;;;;;6.23;3.63;;;5.80;99.90;;;;;;5036046;28;20041;-66
2023/04/15 02:29:53;;;;;;;9.80;4.22;;;5.80;99.90;;;;;;5034450;28;20510;-66
2023/04/15 02:32:23;;;;;;;10.20;3.87;;;5.80;99.90;;;;;;5035373;28;20033;-66
2023/04/15 02:34:48;;;;;;;8.13;3.88;;;5.80;99.90;;;;;;5029165;28;20518;-66
2023/04/15 02:37:15;;;;;;;11.43;4.90;;;5.70;99.90;;;;;;5033830;28;20068;-66
2023/04/15 02:39:40;;;;;;;9.77;4.60;;;5.80;99.90;;;;;;5035198;28;20103;-66
2023/04/15 02:42:06;;;;;;;10.70;4.30;;;5.80;99.90;;;;;;5035619;28;20044;-66
2023/04/15 02:44:33;;;;;;;11.50;4.80;;;5.70;99.90;;;;;;5030097;28;20598;-69
2023/04/15 02:46:58;;;;;;;9.98;4.03;;;5.70;99.90;;;;;;5032765;28;20072;-66
2023/04/15 02:49:25;;;;;;;8.83;4.53;;;5.70;99.90;;;;;;5037779;28;20064;-67
2023/04/15 02:51:51;;;;;;;11.05;5.03;;;5.70;99.90;;;;;;5040834;28;20410;-67
2023/04/15 02:54:17;;;;;;;9.25;4.93;;;5.70;99.90;;;;;;5040017;28;20041;-68
2023/04/15 02:56:43;;;;;;;10.65;5.10;;;5.70;99.90;;;;;;5046422;28;20504;-68
2023/04/15 02:59:08;;;;;;;8.60;4.77;;;5.60;99.90;;;;;;5042435;28;20044;-67
2023/04/15 03:01:34;;;;;;;9.30;4.40;;;5.60;99.90;;;;;;5032820;28;20119;-67
2023/04/15 03:04:00;;;;;;;15.50;5.33;;;5.60;99.90;;;;;;5041416;28;20045;-67
2023/04/15 03:06:25;;;;;;;10.97;4.57;;;5.60;99.90;;;;;;5038301;28;20297;-67
2023/04/15 03:08:51;;;;;;;11.67;4.17;;;5.60;99.90;;;;;;5036419;28;20172;-68
2023/04/15 03:11:18;;;;;;;9.83;4.37;;;5.60;99.90;;;;;;5023667;28;20037;-67
2023/04/15 03:13:43;;;;;;;;;;;5.60;99.90;;;;;;5034205;28;20064;-67
2023/04/15 03:16:09;;;;;;;9.20;4.72;;;5.60;99.90;;;;;;5046436;28;19917;-67
2023/04/15 03:18:35;;;;;;;12.40;5.00;;;5.50;99.90;;;;;;5041031;28;20242;-68
2023/04/15 03:21:01;;;;;;;8.93;4.37;;;5.50;99.90;;;;;;5024914;28;20559;-67
2023/04/15 03:23:27;;;;;;;10.93;5.07;;;5.50;99.90;;;;;;5041608;28;20085;-67
2023/04/15 03:25:56;;;;;;;9.05;4.57;;;5.40;99.90;;;;;;5041280;28;20149;-67
2023/04/15 03:28:21;;;;;;;13.48;4.80;;;5.40;99.90;;;;;;5037872;28;20048;-67
2023/04/15 03:30:47;;;;;;;8.93;5.07;;;5.40;99.90;;;;;;5043813;28;20355;-67
2023/04/15 03:33:12;;;;;;;10.73;4.60;;;5.40;99.90;;;;;;5039784;28;20045;-68
2023/04/15 03:35:38;;;;;;;11.80;4.40;;;5.40;99.90;;;;;;5044398;28;20029;-67
2023/04/15 03:38:03;;;;;;;7.67;4.47;;;5.40;99.90;;;;;;5039964;28;20162;-68
2023/04/15 03:40:29;;;;;;;9.30;5.13;;;5.40;99.90;;;;;;5039070;28;20139;-68
2023/04/15 03:42:55;;;;;;;8.40;4.63;;;5.40;99.90;;;;;;5042573;28;20045;-67
2023/04/15 03:45:20;;;;;;;8.37;4.53;;;5.40;99.90;;;;;;5037529;28;20045;-68
2023/04/15 03:47:46;;;;;;;11.43;5.83;;;5.30;99.90;;;;;;5037675;28;20069;-67
2023/04/15 03:50:12;;;;;;;12.67;5.73;;;5.30;99.90;;;;;;5044296;28;20049;-67
2023/04/15 03:52:37;;;;;;;8.93;4.83;;;5.30;99.90;;;;;;5039398;28;20033;-67
2023/04/15 03:55:04;;;;;;;15.23;5.60;;;5.30;99.90;;;;;;5036629;28;20033;-67
2023/04/15 03:57:30;;;;;;;12.65;5.10;;;5.30;99.90;;;;;;5041014;28;20033;-67
2023/04/15 03:59:55;;;;;;;10.32;5.30;;;5.30;99.90;;;;;;5039461;28;20090;-68
2023/04/15 04:02:22;;;;;;;12.00;5.33;;;5.30;99.90;;;;;;5039866;28;20260;-67
2023/04/15 04:04:47;;;;;;;8.70;5.20;;;5.20;99.90;;;;;;5039128;28;20044;-68
2023/04/15 04:07:17;;;;;;;11.33;5.13;;;5.20;99.90;;;;;;5022938;28;20041;-68
2023/04/15 04:09:43;;;;;;;9.50;5.00;;;5.20;99.90;;;;;;5034736;28;20041;-68
2023/04/15 04:12:08;;;;;;;11.97;5.83;;;5.20;99.90;;;;;;5040485;28;20469;-68
2023/04/15 04:14:34;;;;;;;13.40;5.47;;;5.20;99.90;;;;;;5025747;28;20045;-67
2023/04/15 04:17:00;;;;;;;11.83;5.80;;;5.10;99.90;;;;;;5041572;28;20128;-68
2023/04/15 04:19:29;;;;;;;11.03;5.83;;;5.10;99.90;;;;;;5042666;28;20067;-67
2023/04/15 04:21:54;;;;;;;11.57;5.70;;;5.10;99.90;;;;;;5033195;28;20228;-67
2023/04/15 04:24:20;;;;;;;12.57;6.30;;;5.10;99.90;;;;;;5042103;28;20037;-68
2023/04/15 04:26:46;;;;;;;13.55;6.22;;;5.10;99.90;;;;;;5037882;28;20053;-67
2023/04/15 04:29:11;;;;;;;13.57;6.40;;;5.10;99.90;;;;;;5039132;28;20045;-67
2023/04/15 04:31:37;;;;;;;11.27;6.20;;;5.00;99.90;;;;;;5038932;28;20106;-67
2023/04/15 04:34:03;;;;;;;11.00;6.03;;;5.00;99.90;;;;;;5019664;28;20048;-67
2023/04/15 04:36:28;;;;;;;11.57;6.33;;;5.00;99.90;;;;;;5037744;28;20490;-67
2023/04/15 04:38:54;;;;;;;13.73;6.90;;;5.00;99.90;;;;;;5040058;28;20090;-67
2023/04/15 04:41:20;;;;;;;12.52;6.32;;;5.00;99.90;;;;;;5039865;28;20033;-67
2023/04/15 04:43:46;;;;;;;13.20;6.80;;;5.00;99.90;;;;;;5040658;28;20048;-67
2023/04/15 04:46:12;;;;;;;14.23;6.83;;;5.00;99.90;;;;;;5037557;28;20120;-68
2023/04/15 04:48:38;;;;;;;12.13;6.03;;;4.90;99.90;;;;;;5036080;28;20426;-68
2023/04/15 04:51:04;;;;;;;9.43;5.38;;;4.90;99.90;;;;;;5044009;28;20047;-68
2023/04/15 04:53:29;;;;;;;11.93;6.17;;;4.90;99.90;;;;;;5039005;28;20033;-68
2023/04/15 04:55:55;;;;;;;12.05;6.47;;;4.90;99.90;;;;;;5037430;28;20289;-68
2023/04/15 04:58:21;;;;;;;14.20;6.35;;;4.90;99.90;;;;;;5037804;28;20040;-67
2023/04/15 05:00:47;;;;;;;13.67;6.70;;;4.90;99.90;;;;;;5039532;28;20490;-67
2023/04/15 05:03:13;;;;;;;16.27;7.10;;;4.80;99.90;;;;;;5036618;28;20067;-68
2023/04/15 05:05:39;;;;;;;15.13;7.43;;;4.90;99.90;;;;;;5010124;28;20446;-68
2023/04/15 05:08:06;;;;;;;13.77;6.88;;;4.90;99.90;;;;;;5038724;28;20099;-68
2023/04/15 05:10:31;;;;;;;13.05;6.65;;;4.90;99.90;;;;;;5041863;28;20044;-68
2023/04/15 05:12:57;;;;;;;15.00;6.80;;;4.90;99.90;;;;;;5035498;28;20059;-68
2023/04/15 05:15:22;;;;;;;11.03;5.73;;;4.90;99.90;;;;;;5036265;28;20415;-68
2023/04/15 05:17:48;;;;;;;13.97;6.53;;;4.90;99.90;;;;;;5034565;28;20045;-67
2023/04/15 05:20:14;;;;;;;15.47;7.37;;;4.90;99.90;;;;;;5037343;28;20537;-68
2023/04/15 05:22:40;;;;;;;13.20;6.57;;;5.00;99.90;;;;;;5047525;28;20095;-68
2023/04/15 05:25:06;;;;;;;12.40;7.23;;;5.00;99.90;;;;;;5040559;28;20076;-68
2023/04/15 05:27:31;;;;;;;14.30;6.53;;;5.00;99.90;;;;;;5032448;28;20103;-67
2023/04/15 05:29:57;;;;;;;14.10;7.40;;;5.00;99.90;;;;;;5043973;28;20053;-68
2023/04/15 05:32:23;;;;;;;14.00;7.20;;;5.10;99.90;;;;;;5036373;28;20557;-68
2023/04/15 05:34:51;;;;;;;16.33;7.13;;;5.10;99.90;;;;;;5022780;28;20042;-68
2023/04/15 05:37:19;;;;;;;12.85;6.65;;;5.20;99.90;;;;;;5042452;28;20033;-68
2023/04/15 05:39:45;;;;;;;15.85;7.28;;;5.20;99.90;;;;;;5037643;28;20056;-67
2023/04/15 05:42:11;;;;;;;13.57;7.07;;;5.30;99.90;;;;;;5033797;28;20491;-67
2023/04/15 05:44:36;;;;;;;15.07;7.20;;;5.30;99.90;;;;;;5037904;28;20474;-68
2023/04/15 05:47:02;;;;;;;17.27;6.83;;;5.40;99.90;;;;;;5033231;28;20044;-68
2023/04/15 05:49:28;;;;;;;13.80;7.07;;;5.50;99.90;;;;;;5024694;28;20088;-67
2023/04/15 05:51:54;;;;;;;11.43;6.63;;;5.50;99.90;;;;;;5038185;28;20049;-67
2023/04/15 05:54:22;;;;;;;14.10;7.77;;;5.60;99.90;;;;;;5039779;28;20041;-67
2023/04/15 05:56:47;;;;;;;11.05;5.57;;;5.60;99.90;;;;;;5032005;28;20525;-67
2023/04/15 05:59:13;;;;;;;15.00;6.43;;;5.70;99.90;;;;;;5033713;28;20038;-67
2023/04/15 06:01:39;;;;;;;14.47;5.80;;;5.80;99.90;;;;;;5039906;28;20082;-68
2023/04/15 06:04:05;;;;;;;11.53;6.13;;;5.90;99.90;;;;;;5033687;28;20053;-68
2023/04/15 06:06:33;;;;;;;13.07;6.45;;;6.00;99.90;;;;;;5016849;28;20191;-68
2023/04/15 06:08:59;;;;;;;11.65;6.60;;;6.10;99.90;;;;;;5032357;28;20049;-68
2023/04/15 06:11:26;;;;;;;11.77;6.33;;;6.20;99.90;;;;;;5038323;28;20507;-67
2023/04/15 06:13:51;;;;;;;;;;;6.20;99.90;;;;;;5042318;28;20044;-67
2023/04/15 06:16:17;;;;;;;13.68;6.00;;;6.30;99.90;;;;;;5034845;28;19916;-67
2023/04/15 06:18:42;;;;;;;10.73;5.53;;;6.40;99.90;;;;;;5042624;28;20037;-67
2023/04/15 06:21:10;;;;;;;12.13;6.50;;;6.50;99.90;;;;;;5040456;28;20498;-67
2023/04/15 06:23:36;;;;;;;13.10;6.30;;;6.50;99.90;;;;;;5032094;28;20462;-67
2023/04/15 06:26:02;;;;;;;10.87;5.50;;;6.60;99.90;;;;;;5036330;28;20041;-67
2023/04/15 06:28:28;;;;;;;12.85;6.13;;;6.60;99.90;;;;;;5028235;28;20048;-68
2023/04/15 06:30:56;;;;;;;11.55;5.47;;;6.70;99.90;;;;;;5025189;28;20046;-67
2023/04/15 06:33:22;;;;;;;10.63;5.33;;;6.80;99.90;;;;;;5034119;28;20976;-67
2023/04/15 06:35:48;;;;;;;11.83;6.13;;;6.80;99.90;;;;;;5033789;28;20068;-67
2023/04/15 06:38:14;;;;;;;10.25;5.97;;;6.80;99.90;;;;;;5039821;28;20045;-67
2023/04/15 06:40:39;;;;;;;11.23;5.77;;;6.90;99.90;;;;;;5038072;28;20494;-68
2023/04/15 06:43:05;;;;;;;15.23;6.10;;;6.90;99.90;;;;;;5012992;28;20046;-68
2023/04/15 06:45:31;;;;;;;12.43;6.13;;;7.00;99.90;;;;;;5031640;28;20313;-68
2023/04/15 06:47:56;;;;;;;12.03;6.00;;;7.10;99.90;;;;;;5037322;28;20041;-69
2023/04/15 06:50:22;;;;;;;14.07;6.20;;;7.10;99.90;;;;;;5030415;28;20044;-67
2023/04/15 06:52:48;;;;;;;12.87;6.10;;;7.20;99.90;;;;;;5030933;28;20037;-67
2023/04/15 06:55:14;;;;;;;10.13;5.70;;;7.30;99.90;;;;;;5034841;28;20493;-76
2023/04/15 06:57:39;;;;;;;13.23;7.17;;;7.40;99.90;;;;;;5037206;28;20036;-68
2023/04/15 07:00:06;;;;;;;14.47;6.63;;;7.50;99.90;;;;;;5040860;28;20045;-69
2023/04/15 07:02:32;;;;;;;11.50;5.63;;;7.60;99.90;;;;;;5037822;28;20298;-69
2023/04/15 07:04:57;;;;;;;11.02;6.18;;;7.70;99.90;;;;;;5025000;28;20128;-68
2023/04/15 07:07:24;;;;;;;10.33;5.90;;;7.80;99.90;;;;;;5031598;28;20049;-70
2023/04/15 07:09:51;;;;;;;10.95;5.53;;;7.90;99.90;;;;;;5023130;28;20099;-68
2023/04/15 07:12:16;;;;;;;;;;;8.10;99.90;;;;;;5034219;28;20057;-69
2023/04/15 07:14:42;;;;;;;11.52;5.35;;;8.20;99.90;;;;;;5041150;28;19916;-76
2023/04/15 07:17:08;;;;;;;8.67;5.03;;;8.30;99.90;;;;;;5038175;28;20102;-70
2023/04/15 07:19:34;;;;;;;10.98;5.10;;;8.50;99.90;;;;;;5038192;28;20045;-67
2023/04/15 07:22:00;;;;;;;14.55;6.55;;;8.50;99.90;;;;;;5039305;28;20090;-67
2023/04/15 07:24:25;;;;;;;13.33;6.47;;;8.70;99.90;;;;;;5040792;28;20041;-67
2023/04/15 07:26:53;;;;;;;8.93;4.97;;;8.80;99.90;;;;;;5042524;28;20057;-68
2023/04/15 07:29:19;;;;;;;8.43;4.75;;;8.90;99.90;;;;;;5035907;28;20415;-67
2023/04/15 07:31:45;;;;;;;12.37;5.63;;;9.00;99.90;;;;;;5032614;28;20047;-67
2023/04/15 07:34:10;;;;;;;12.17;5.17;;;9.10;99.90;;;;;;5041571;28;20540;-68
2023/04/15 07:36:36;;;;;;;10.43;5.17;;;9.20;99.90;;;;;;5037848;28;20483;-68
2023/04/15 07:39:02;;;;;;;9.47;4.57;;;9.20;99.90;;;;;;5037760;28;20038;-67
2023/04/15 07:41:28;;;;;;;;;;;9.20;99.90;;;;;;5039321;28;20097;-68
2023/04/15 07:43:54;;;;;;;12.15;4.40;;;9.20;99.90;;;;;;5041503;28;20197;-68
2023/04/15 07:46:20;;;;;;;8.27;4.00;;;9.30;99.90;;;;;;5038330;28;20090;-68
2023/04/15 07:48:45;;;;;;;7.97;3.80;;;9.30;99.90;;;;;;5019536;28;20033;-68
2023/04/15 07:51:11;;;;;;;6.03;3.47;;;9.40;99.90;;;;;;5038263;28;20099;-67
2023/04/15 07:53:37;;;;;;;6.20;3.13;;;9.40;99.90;;;;;;5034354;28;20380;-68
2023/04/15 07:56:03;;;;;;;7.32;3.28;;;9.50;99.90;;;;;;5036663;28;20049;-67
2023/04/15 07:58:29;;;;;;;5.30;3.00;;;9.60;99.90;;;;;;5018713;28;20515;-68
2023/04/15 08:00:54;;;;;;;5.73;2.97;;;9.60;99.90;;;;;;5044720;28;20049;-68
2023/04/15 08:03:22;;;;;;;4.40;2.20;;;9.70;99.90;;;;;;5043028;28;20410;-67
2023/04/15 08:05:48;;;;;;;3.90;2.15;;;9.80;99.90;;;;;;5047496;28;20120;-68
2023/04/15 08:08:13;;;;;;;4.10;2.30;;;9.90;99.90;;;;;;5033711;28;20124;-67
2023/04/15 08:10:45;;;;;;;4.27;2.37;;;10.00;99.90;;;;;;5124535;22;20507;-84
2023/04/15 08:13:15;;;;;;;7.45;2.92;;;10.10;99.90;;;;;;5046587;28;20044;-84
2023/04/15 08:15:46;;;;;;;4.88;2.67;;;10.20;99.90;;;;;;5029945;28;20045;-84
2023/04/15 08:18:12;;;;;;;6.10;2.50;;;10.30;99.90;;;;;;5047860;28;20108;-84
2023/04/15 08:20:40;;;;;;;5.20;2.63;;;10.40;99.90;;;;;;5015590;28;20076;-85
2023/04/15 08:23:44;;;;;;;3.38;1.92;;;10.40;99.90;;;;;;5008666;28;20041;-86
2023/04/15 08:26:48;;;;;;;4.20;2.17;;;10.50;99.90;;;;;;5045580;28;20045;-84
2023/04/15 08:29:27;;;;;;;4.07;1.67;;;10.70;99.90;;;;;;5024207;28;20049;-85
2023/04/15 08:32:03;;;;;;;5.25;2.80;;;10.70;99.90;;;;;;5029889;22;20136;-74
2023/04/15 08:34:29;;;;;;;7.18;2.60;;;10.70;99.90;;;;;;5023563;28;20518;-71
2023/04/15 08:36:55;;;;;;;5.65;1.98;;;10.70;99.90;;;;;;5019404;28;20053;-74
2023/04/15 08:39:21;;;;;;;4.22;2.78;;;10.70;99.90;;;;;;5012997;28;20153;-74
2023/04/15 08:41:53;;;;;;;5.70;2.60;;;10.70;99.90;;;;;;5023295;28;20037;-72
2023/04/15 08:44:20;;;;;;;4.25;2.60;;;10.70;99.90;;;;;;4993880;28;20399;-72
2023/04/15 08:46:46;;;;;;;5.80;3.22;;;10.80;99.90;;;;;;5016310;28;20099;-72
2023/04/15 08:49:12;;;;;;;7.30;3.00;;;10.70;99.90;;;;;;5016395;28;20404;-73
2023/04/15 08:51:39;;;;;;;6.10;2.75;;;10.70;99.90;;;;;;5008239;28;20052;-73
2023/04/15 08:54:07;;;;;;;5.30;2.47;;;10.70;99.90;;;;;;4997474;28;20044;-74
2023/04/15 08:56:33;;;;;;;5.85;2.20;;;10.60;99.90;;;;;;5006284;28;20080;-73
2023/04/15 08:58:59;;;;;;;5.95;2.97;;;10.50;99.90;;;;;;5001324;28;20053;-72
2023/04/15 09:01:25;;;;;;;5.72;2.38;;;10.40;99.90;;;;;;4990337;28;20045;-73
2023/04/15 09:03:55;;;;;;;5.20;2.47;;;10.40;99.90;;;;;;5003226;28;20205;-72
2023/04/15 09:06:21;;;;;;;5.20;2.38;;;10.40;99.90;;;;;;5009501;28;20048;-74
2023/04/15 09:08:47;;;;;;;;;;;10.30;99.90;;;;;;5003112;28;20495;-72
2023/04/15 09:11:12;;;;;;;5.35;1.92;;;10.30;99.90;;;;;;4998713;28;19963;-74
2023/04/15 09:13:38;;;;;;;3.23;2.00;;;10.30;99.90;;;;;;5000322;28;20054;-72
2023/04/15 09:16:05;;;;;;;4.38;2.40;;;10.40;99.90;;;;;;5003391;28;20487;-73
2023/04/15 09:18:33;;;;;;;4.93;1.88;;;10.40;99.90;;;;;;5019407;28;20068;-73
2023/04/15 09:21:07;;;;;;;3.67;2.30;;;10.40;99.90;;;;;;5011897;28;20328;-72
2023/04/15 09:23:34;;;;;;;4.03;1.85;;;10.40;99.90;;;;;;5001428;28;20056;-73
2023/04/15 09:26:01;;;;;;;6.05;1.80;;;10.40;99.90;;;;;;5022802;28;20151;-74
2023/04/15 09:28:29;;;;;;;5.00;2.08;;;10.30;99.90;;;;;;5021335;28;20583;-73
2023/04/15 09:31:00;;;;;;;5.25;2.15;;;10.30;99.90;;;;;;5001904;28;20054;-72
2023/04/15 09:33:27;;;;;;;4.10;1.95;;;10.30;99.90;;;;;;5021998;28;20052;-73
2023/04/15 09:36:01;;;;;;;3.55;1.90;;;10.20;99.90;;;;;;5008849;28;20046;-73
2023/04/15 09:38:27;;;;;;;3.58;1.67;;;10.20;99.90;;;;;;4983137;28;20048;-72
2023/04/15 09:40:53;;;;;;;3.40;1.63;;;10.20;99.90;;;;;;5032438;28;20052;-73
2023/04/15 09:43:19;;;;;;;3.50;1.60;;;10.40;99.90;;;;;;5023564;28;20041;-71
2023/04/15 09:45:50;;;;;;;4.43;1.48;;;10.60;99.90;;;;;;5001896;28;20407;-71
2023/04/15 09:48:30;;;;;;;3.53;1.42;;;10.80;99.90;;;;;;4999493;28;20160;-70
2023/04/15 09:51:00;;;;;;;1.60;0.88;;;10.90;99.90;;;;;;4981091;28;20076;-70
2023/04/15 09:53:26;;;;;;;2.40;0.98;;;11.00;99.90;;;;;;4994643;28;20041;-70
2023/04/15 09:55:57;;;;;;;3.70;1.05;;;11.00;99.90;;;;;;5001497;28;20045;-71
2023/04/15 09:58:28;;;;;;;5.00;1.27;;;11.00;99.90;;;;;;5010404;28;20782;-71
2023/04/15 10:00:56;;;;;;;2.75;1.17;;;11.00;99.90;;;;;;5002913;28;20042;-70
2023/04/15 10:03:25;;;;;;;1.67;0.73;;;11.10;99.90;;;;;;5006525;28;20076;-71
2023/04/15 10:05:52;;;;;;;3.08;1.17;;;11.20;99.90;;;;;;4985607;28;20037;-70
2023/04/15 10:08:20;;;;;;;2.08;1.00;;;11.40;99.90;;;;;;4997731;28;20053;-70
2023/04/15 10:10:47;;;;;;;4.75;1.45;;;11.50;99.90;;;;;;5027557;28;20037;-70
2023/04/15 10:13:13;;;;;;;;;;;11.50;99.90;;;;;;5001947;28;20038;-70
2023/04/15 10:15:42;;;;;;;5.22;1.20;;;11.50;99.90;;;;;;5004618;28;19917;-71
2023/04/15 10:18:08;;;;;;;2.03;0.98;;;11.40;99.90;;;;;;5003978;28;20045;-70
2023/04/15 10:20:34;;;;;;;;;;;11.30;99.90;;;;;;5005984;28;20049;-70
2023/04/15 10:23:00;;;;;;;2.42;1.00;;;11.40;99.90;;;;;;5007489;28;19936;-71
2023/04/15 10:25:28;;;;;;;2.20;0.68;;;11.30;99.90;;;;;;5001895;28;20052;-70
2023/04/15 10:27:55;;;;;;;4.25;0.82;;;11.30;99.90;;;;;;5002175;28;20564;-71
2023/04/15 10:30:21;;;;;;;3.03;0.82;;;11.30;99.90;;;;;;5002964;28;20144;-71
2023/04/15 10:32:47;;;;;;;1.83;0.60;;;11.20;99.90;;;;;;5021914;28;20400;-70
2023/04/15 10:35:13;;;;;;;2.80;0.80;;;11.20;99.90;;;;;;5002465;28;20222;-70
2023/04/15 10:37:39;;;;;;;4.95;1.40;;;11.20;99.90;;;;;;4996191;28;20119;-71
2023/04/15 10:40:26;;;;;;;1.90;1.00;;;11.20;99.90;;;;;;5020635;28;20508;-70
2023/04/15 10:42:53;;;;;;;1.10;0.60;;;11.30;99.90;;;;;;4994759;28;20296;-71
2023/04/15 10:45:19;;;;;;;1.20;0.75;;;11.20;99.90;;;;;;5002595;28;20610;-70
2023/04/15 10:47:44;;;;;;;3.47;0.80;;;11.20;99.90;;;;;;5002098;28;20128;-71
2023/04/15 10:50:10;;;;;;;1.97;0.80;;;11.10;99.90;;;;;;5007347;28;20052;-71
2023/04/15 10:52:40;;;;;;;1.88;0.73;;;11.10;99.90;;;;;;4998608;28;20056;-71
2023/04/15 10:55:09;;;;;;;1.17;0.80;;;11.00;99.90;;;;;;5003244;28;20049;-70
2023/04/15 10:57:38;;;;;;;2.80;0.70;;;11.00;99.90;;;;;;5004955;28;20042;-71
2023/04/15 11:00:07;;;;;;;1.98;1.30;;;11.00;99.90;;;;;;4999195;28;20053;-71
2023/04/15 11:02:40;;;;;;;1.40;0.63;;;11.00;99.90;;;;;;5016902;28;20155;-71
2023/04/15 11:05:06;;;;;;;5.20;0.95;;;10.90;99.90;;;;;;4987501;28;20048;-71
2023/04/15 11:07:57;;;;;;;1.60;0.80;;;10.90;99.90;;;;;;5003502;28;20064;-71
2023/04/15 11:10:29;;;;;;;2.47;0.93;;;10.90;99.90;;;;;;5004340;28;20045;-71
2023/04/15 11:13:10;;;;;;;1.98;0.95;;;10.80;99.90;;;;;;5002307;28;20053;-71
2023/04/15 11:15:41;;;;;;;1.50;0.70;;;10.80;99.90;;;;;;5006480;28;20042;-70
2023/04/15 11:18:23;;;;;;;3.03;0.80;;;10.80;99.90;;;;;;5020515;28;20729;-71
2023/04/15 11:20:50;;;;;;;3.63;0.90;;;10.80;99.90;;;;;;5000036;28;20111;-71
2023/04/15 11:23:18;;;;;;;1.52;0.82;;;10.80;99.90;;;;;;5005011;28;20124;-71
2023/04/15 11:25:44;;;;;;;4.85;1.13;;;10.80;99.90;;;;;;5005653;28;20057;-71
2023/04/15 11:28:11;;;;;;;3.70;1.20;;;10.80;99.90;;;;;;5002792;28;20041;-70
2023/04/15 11:30:38;;;;;;;4.65;0.95;;;10.80;99.90;;;;;;5016882;28;20165;-71
2023/04/15 11:33:07;;;;;;;3.13;1.02;;;10.80;99.90;;;;;;4995940;28;20118;-72
2023/04/15 11:35:33;;;;;;;4.80;0.90;;;10.80;99.90;;;;;;5022446;28;20041;-71
2023/04/15 11:38:07;;;;;;;2.67;1.88;;;10.80;99.90;;;;;;5005552;28;20388;-71
2023/04/15 11:40:34;;;;;;;4.50;1.00;;;10.80;99.90;;;;;;5006120;28;20482;-70
2023/04/15 11:43:06;;;;;;;;;;;10.80;99.90;;;;;;5005482;28;20115;-71
2023/04/15 11:45:33;;;;;;;2.85;0.95;;;10.80;99.90;;;;;;5021809;28;19920;-71
2023/04/15 11:48:06;;;;;;;4.97;0.80;;;10.80;99.90;;;;;;4997028;28;20045;-71
2023/04/15 11:50:31;;;;;;;5.32;0.80;;;10.70;99.90;;;;;;5003556;28;20431;-70
2023/04/15 11:53:03;;;;;;;4.25;0.85;;;10.70;99.90;;;;;;5006360;28;20549;-71
2023/04/15 11:55:30;;;;;;;3.90;1.00;;;10.60;99.90;;;;;;5005902;28;20127;-71
2023/04/15 11:58:15;;;;;;;2.35;1.30;;;10.60;99.90;;;;;;4991587;28;20048;-71
2023/04/15 12:00:52;;;;;;;4.28;0.93;;;10.60;99.90;;;;;;5005088;28;20106;-71
2023/04/15 12:03:35;;;;;;;1.80;0.80;;;10.60;99.90;;;;;;4988066;28;20044;-70
2023/04/15 12:06:18;;;;;;;1.27;0.70;;;10.70;99.90;;;;;;4999878;28;20064;-71
2023/04/15 12:08:57;;;;;;;2.10;0.80;;;10.70;99.90;;;;;;4996225;28;20075;-71
2023/04/15 12:11:27;;;;;;;3.47;0.85;;;10.80;99.90;;;;;;4999600;28;20048;-71
2023/04/15 12:14:05;;;;;;;3.90;1.30;;;10.80;99.90;;;;;;4991266;28;20451;-70
2023/04/15 12:16:33;;;;;;;3.28;0.82;;;10.80;99.90;;;;;;5004143;28;20529;-71
2023/04/15 12:19:03;;;;;;;10.73;1.42;;;10.70;99.90;;;;;;5000143;28;20400;-71
2023/04/15 12:21:34;;;;;;;4.85;1.10;;;10.70;99.90;;;;;;5001739;28;20140;-71
2023/04/15 12:24:03;;;;;;;4.20;1.00;;;10.70;99.90;;;;;;5006517;28;20492;-72
2023/04/15 12:26:34;;;;;;;3.28;1.40;;;10.60;99.90;;;;;;4991089;28;20033;-71
2023/04/15 12:29:07;;;;;;;5.45;1.30;;;10.50;99.90;;;;;;5022051;28;20046;-70
2023/04/15 12:31:37;;;;;;;5.45;1.30;;;10.40;99.90;;;;;;5018201;28;20396;-71
2023/04/15 12:34:08;;;;;;;4.53;1.02;;;10.40;99.90;;;;;;5002459;28;20117;-71
2023/04/15 12:36:36;;;;;;;3.80;0.85;;;10.30;99.90;;;;;;4980721;28;20132;-71
2023/04/15 12:39:03;;;;;;;9.20;1.40;;;10.30;99.90;;;;;;5005231;28;20053;-71
2023/04/15 12:41:29;;;;;;;4.20;1.15;;;10.30;99.90;;;;;;5004854;28;20046;-70
2023/04/15 12:43:54;;;;;;;6.82;1.27;;;10.30;99.90;;;;;;4990150;28;20033;-70
2023/04/15 12:46:20;;;;;;;5.67;1.00;;;10.30;99.90;;;;;;4995668;28;20152;-71
2023/04/15 12:48:46;;;;;;;4.00;1.23;;;10.20;99.90;;;;;;5004853;28;20049;-71
2023/04/15 12:51:12;;;;;;;10.77;1.35;;;10.20;99.90;;;;;;5001843;28;20080;-71
2023/04/15 12:53:38;;;;;;;4.25;1.02;;;10.20;99.90;;;;;;5000909;28;20544;-72
2023/04/15 12:56:04;;;;;;;5.10;0.70;;;10.20;99.90;;;;;;5000809;28;20124;-70